sensor_id;sensor_type;location;lat;lon;timestamp;pressure;altitude;pressure_sealevel;temperature;humidity
64215;BME280;54441;52.110;5.252;2022-07-05T00:00:43;102073.0;;;14.85;100.0
64215;BME280;54441;52.110;5.252;2022-07-05T00:02:30;102074.0;;;14.79;100.0
64215;BME280;54441;52.110;5.252;2022-07-05T00:04:17;102077.0;;;14.8;100.0
64215;BME280;54441;52.110;5.252;2022-07-05T00:06:05;102077.0;;;14.96;100.0
64215;BME280;54441;52.110;5.252;2022-07-05T00:07:52;102082.0;;;15.09;100.0
64215;BME280;54441;52.110;5.252;2022-07-05T00:11:25;102082.0;;;14.94;100.0
64215;BME280;54441;52.110;5.252;2022-07-05T00:13:12;102082.0;;;14.91;100.0
64215;BME280;54441;52.110;5.252;2022-07-05T00:15:00;102084.0;;;14.88;100.0
64215;BME280;54441;52.110;5.252;2022-07-05T00:16:47;102082.0;;;14.87;100.0
64215;BME280;54441;52.110;5.252;2022-07-05T00:18:35;102078.0;;;14.72;100.0
64215;BME280;54441;52.110;5.252;2022-07-05T00:20:21;102080.0;;;14.7;100.0
64215;BME280;54441;52.110;5.252;2022-07-05T00:23:55;102078.0;;;14.65;100.0
64215;BME280;54441;52.110;5.252;2022-07-05T00:25:41;102078.0;;;14.65;100.0
64215;BME280;54441;52.110;5.252;2022-07-05T00:27:27;102081.0;;;14.61;100.0
64215;BME280;54441;52.110;5.252;2022-07-05T00:29:14;102084.0;;;14.59;100.0
64215;BME280;54441;52.110;5.252;2022-07-05T00:31:01;102084.0;;;14.64;100.0
64215;BME280;54441;52.110;5.252;2022-07-05T00:32:47;102080.0;;;14.66;100.0
64215;BME280;54441;52.110;5.252;2022-07-05T00:36:20;102078.0;;;14.59;100.0
64215;BME280;54441;52.110;5.252;2022-07-05T00:38:07;102071.0;;;14.72;100.0
64215;BME280;54441;52.110;5.252;2022-07-05T00:39:54;102076.0;;;14.59;100.0
64215;BME280;54441;52.110;5.252;2022-07-05T00:41:40;102071.0;;;14.55;100.0
64215;BME280;54441;52.110;5.252;2022-07-05T00:43:27;102074.0;;;14.46;100.0
64215;BME280;54441;52.110;5.252;2022-07-05T00:47:03;102074.0;;;14.41;100.0
64215;BME280;54441;52.110;5.252;2022-07-05T00:48:51;102075.0;;;14.38;100.0
64215;BME280;54441;52.110;5.252;2022-07-05T00:50:39;102077.0;;;14.39;100.0
64215;BME280;54441;52.110;5.252;2022-07-05T00:52:29;102071.0;;;14.37;100.0
64215;BME280;54441;52.110;5.252;2022-07-05T00:54:16;102070.0;;;14.32;100.0
64215;BME280;54441;52.110;5.252;2022-07-05T00:56:04;102071.0;;;14.24;100.0
64215;BME280;54441;52.110;5.252;2022-07-05T00:59:38;102068.0;;;14.18;100.0
64215;BME280;54441;52.110;5.252;2022-07-05T01:01:26;102070.0;;;14.21;100.0
64215;BME280;54441;52.110;5.252;2022-07-05T01:03:13;102070.0;;;14.21;100.0
64215;BME280;54441;52.110;5.252;2022-07-05T01:05:00;102069.0;;;14.21;100.0
64215;BME280;54441;52.110;5.252;2022-07-05T01:06:49;102070.0;;;14.14;100.0
64215;BME280;54441;52.110;5.252;2022-07-05T01:08:38;102073.0;;;14.18;100.0
64215;BME280;54441;52.110;5.252;2022-07-05T01:10:26;102072.0;;;14.29;100.0
64215;BME280;54441;52.110;5.252;2022-07-05T01:14:02;102077.0;;;14.39;100.0
64215;BME280;54441;52.110;5.252;2022-07-05T01:15:49;102078.0;;;14.48;100.0
64215;BME280;54441;52.110;5.252;2022-07-05T01:17:37;102072.0;;;14.35;100.0
64215;BME280;54441;52.110;5.252;2022-07-05T01:19:24;102074.0;;;14.23;100.0
64215;BME280;54441;52.110;5.252;2022-07-05T01:21:12;102071.0;;;14.23;100.0
64215;BME280;54441;52.110;5.252;2022-07-05T01:23:01;102073.0;;;14.21;100.0
64215;BME280;54441;52.110;5.252;2022-07-05T01:26:36;102070.0;;;14.18;100.0
64215;BME280;54441;52.110;5.252;2022-07-05T01:28:24;102069.0;;;14.26;100.0
64215;BME280;54441;52.110;5.252;2022-07-05T01:30:11;102067.0;;;14.23;100.0
64215;BME280;54441;52.110;5.252;2022-07-05T01:31:58;102067.0;;;14.16;100.0
64215;BME280;54441;52.110;5.252;2022-07-05T01:35:31;102072.0;;;14.14;100.0
64215;BME280;54441;52.110;5.252;2022-07-05T01:39:06;102070.0;;;14.1;100.0
64215;BME280;54441;52.110;5.252;2022-07-05T01:40:53;102067.0;;;14.15;100.0
64215;BME280;54441;52.110;5.252;2022-07-05T01:42:39;102073.0;;;14.21;100.0
64215;BME280;54441;52.110;5.252;2022-07-05T01:44:26;102075.0;;;14.24;100.0
64215;BME280;54441;52.110;5.252;2022-07-05T01:46:15;102076.0;;;14.19;100.0
64215;BME280;54441;52.110;5.252;2022-07-05T01:49:54;102075.0;;;14.17;100.0
64215;BME280;54441;52.110;5.252;2022-07-05T01:51:48;102076.0;;;14.08;100.0
64215;BME280;54441;52.110;5.252;2022-07-05T01:53:39;102073.0;;;14.03;100.0
64215;BME280;54441;52.110;5.252;2022-07-05T01:55:27;102078.0;;;14.02;100.0
64215;BME280;54441;52.110;5.252;2022-07-05T01:57:13;102078.0;;;14.11;100.0
64215;BME280;54441;52.110;5.252;2022-07-05T01:59:00;102082.0;;;14.11;100.0
64215;BME280;54441;52.110;5.252;2022-07-05T02:00:49;102080.0;;;14.08;100.0
64215;BME280;54441;52.110;5.252;2022-07-05T02:04:28;102080.0;;;14.13;100.0
64215;BME280;54441;52.110;5.252;2022-07-05T02:06:14;102080.0;;;14.15;100.0
64215;BME280;54441;52.110;5.252;2022-07-05T02:08:01;102077.0;;;14.17;100.0
64215;BME280;54441;52.110;5.252;2022-07-05T02:09:47;102078.0;;;14.25;100.0
64215;BME280;54441;52.110;5.252;2022-07-05T02:11:33;102077.0;;;14.22;100.0
64215;BME280;54441;52.110;5.252;2022-07-05T02:13:21;102076.0;;;14.21;100.0
64215;BME280;54441;52.110;5.252;2022-07-05T02:16:55;102080.0;;;14.16;100.0
64215;BME280;54441;52.110;5.252;2022-07-05T02:18:41;102078.0;;;14.08;100.0
64215;BME280;54441;52.110;5.252;2022-07-05T02:20:28;102075.0;;;14.09;100.0
64215;BME280;54441;52.110;5.252;2022-07-05T02:22:14;102075.0;;;14.06;100.0
64215;BME280;54441;52.110;5.252;2022-07-05T02:25:46;102076.0;;;14.15;100.0
64215;BME280;54441;52.110;5.252;2022-07-05T02:29:19;102081.0;;;14.35;100.0
64215;BME280;54441;52.110;5.252;2022-07-05T02:31:05;102069.0;;;14.5;100.0
64215;BME280;54441;52.110;5.252;2022-07-05T02:32:51;102068.0;;;14.41;100.0
64215;BME280;54441;52.110;5.252;2022-07-05T02:34:37;102065.0;;;14.34;100.0
64215;BME280;54441;52.110;5.252;2022-07-05T02:36:25;102068.0;;;14.33;100.0
64215;BME280;54441;52.110;5.252;2022-07-05T02:39:58;102071.0;;;14.3;100.0
64215;BME280;54441;52.110;5.252;2022-07-05T02:41:44;102072.0;;;14.23;100.0
64215;BME280;54441;52.110;5.252;2022-07-05T02:43:31;102072.0;;;14.06;100.0
64215;BME280;54441;52.110;5.252;2022-07-05T02:45:17;102071.0;;;14.05;100.0
64215;BME280;54441;52.110;5.252;2022-07-05T02:47:05;102071.0;;;14.06;100.0
64215;BME280;54441;52.110;5.252;2022-07-05T02:48:51;102077.0;;;14.23;100.0
64215;BME280;54441;52.110;5.252;2022-07-05T02:52:24;102075.0;;;14.11;100.0
64215;BME280;54441;52.110;5.252;2022-07-05T02:54:11;102075.0;;;14.1;100.0
64215;BME280;54441;52.110;5.252;2022-07-05T02:55:58;102072.0;;;13.9;100.0
64215;BME280;54441;52.110;5.252;2022-07-05T02:57:45;102078.0;;;13.82;100.0
64215;BME280;54441;52.110;5.252;2022-07-05T02:59:31;102083.0;;;13.77;100.0
64215;BME280;54441;52.110;5.252;2022-07-05T03:01:18;102082.0;;;13.82;100.0
64215;BME280;54441;52.110;5.252;2022-07-05T03:04:51;102081.0;;;13.83;100.0
64215;BME280;54441;52.110;5.252;2022-07-05T03:06:39;102088.0;;;13.77;100.0
64215;BME280;54441;52.110;5.252;2022-07-05T03:08:26;102089.0;;;13.88;100.0
64215;BME280;54441;52.110;5.252;2022-07-05T03:10:12;102085.0;;;13.8;100.0
64215;BME280;54441;52.110;5.252;2022-07-05T03:11:58;102087.0;;;13.76;100.0
64215;BME280;54441;52.110;5.252;2022-07-05T03:15:31;102080.0;;;13.76;100.0
64215;BME280;54441;52.110;5.252;2022-07-05T03:17:18;102084.0;;;13.7;100.0
64215;BME280;54441;52.110;5.252;2022-07-05T03:19:04;102086.0;;;13.58;100.0
64215;BME280;54441;52.110;5.252;2022-07-05T03:20:51;102088.0;;;13.54;100.0
64215;BME280;54441;52.110;5.252;2022-07-05T03:22:38;102088.0;;;13.58;100.0
64215;BME280;54441;52.110;5.252;2022-07-05T03:24:24;102093.0;;;13.63;100.0
64215;BME280;54441;52.110;5.252;2022-07-05T03:27:58;102091.0;;;13.66;100.0
64215;BME280;54441;52.110;5.252;2022-07-05T03:29:44;102100.0;;;13.7;100.0
64215;BME280;54441;52.110;5.252;2022-07-05T03:31:31;102099.0;;;13.68;100.0
64215;BME280;54441;52.110;5.252;2022-07-05T03:33:17;102100.0;;;13.65;100.0
64215;BME280;54441;52.110;5.252;2022-07-05T03:35:04;102100.0;;;13.63;100.0
64215;BME280;54441;52.110;5.252;2022-07-05T03:36:52;102098.0;;;13.64;100.0
64215;BME280;54441;52.110;5.252;2022-07-05T03:40:24;102101.0;;;13.87;100.0
64215;BME280;54441;52.110;5.252;2022-07-05T03:42:10;102103.0;;;13.89;100.0
64215;BME280;54441;52.110;5.252;2022-07-05T03:43:56;102100.0;;;13.86;100.0
64215;BME280;54441;52.110;5.252;2022-07-05T03:45:43;102101.0;;;13.9;100.0
64215;BME280;54441;52.110;5.252;2022-07-05T03:47:30;102105.0;;;13.94;100.0
64215;BME280;54441;52.110;5.252;2022-07-05T03:51:04;102106.0;;;13.95;100.0
64215;BME280;54441;52.110;5.252;2022-07-05T03:52:50;102105.0;;;14.0;100.0
64215;BME280;54441;52.110;5.252;2022-07-05T03:54:36;102107.0;;;14.06;100.0
64215;BME280;54441;52.110;5.252;2022-07-05T03:56:23;102106.0;;;14.03;100.0
64215;BME280;54441;52.110;5.252;2022-07-05T03:58:10;102108.0;;;14.09;100.0
64215;BME280;54441;52.110;5.252;2022-07-05T03:59:57;102106.0;;;14.09;100.0
64215;BME280;54441;52.110;5.252;2022-07-05T04:03:30;102111.0;;;14.22;100.0
64215;BME280;54441;52.110;5.252;2022-07-05T04:05:18;102111.0;;;14.21;100.0
64215;BME280;54441;52.110;5.252;2022-07-05T04:07:04;102112.0;;;14.25;100.0
64215;BME280;54441;52.110;5.252;2022-07-05T04:08:50;102111.0;;;14.37;100.0
64215;BME280;54441;52.110;5.252;2022-07-05T04:10:37;102113.0;;;14.45;100.0
64215;BME280;54441;52.110;5.252;2022-07-05T04:14:09;102118.0;;;14.39;100.0
64215;BME280;54441;52.110;5.252;2022-07-05T04:15:57;102121.0;;;14.45;100.0
64215;BME280;54441;52.110;5.252;2022-07-05T04:17:47;102116.0;;;14.42;100.0
64215;BME280;54441;52.110;5.252;2022-07-05T04:21:21;102114.0;;;14.49;100.0
64215;BME280;54441;52.110;5.252;2022-07-05T04:23:08;102112.0;;;14.33;100.0
64215;BME280;54441;52.110;5.252;2022-07-05T04:27:14;102119.0;;;14.32;100.0
64215;BME280;54441;52.110;5.252;2022-07-05T04:30:46;102118.0;;;14.4;100.0
64215;BME280;54441;52.110;5.252;2022-07-05T04:32:33;102118.0;;;14.5;100.0
64215;BME280;54441;52.110;5.252;2022-07-05T04:34:20;102119.0;;;14.49;100.0
64215;BME280;54441;52.110;5.252;2022-07-05T04:36:07;102125.0;;;14.6;100.0
64215;BME280;54441;52.110;5.252;2022-07-05T04:37:53;102123.0;;;14.53;100.0
64215;BME280;54441;52.110;5.252;2022-07-05T04:39:39;102123.0;;;14.51;100.0
64215;BME280;54441;52.110;5.252;2022-07-05T04:43:13;102123.0;;;14.57;100.0
64215;BME280;54441;52.110;5.252;2022-07-05T04:45:00;102127.0;;;14.73;100.0
64215;BME280;54441;52.110;5.252;2022-07-05T04:46:47;102123.0;;;14.81;100.0
64215;BME280;54441;52.110;5.252;2022-07-05T04:48:33;102125.0;;;14.84;100.0
64215;BME280;54441;52.110;5.252;2022-07-05T04:50:19;102114.0;;;14.8;100.0
64215;BME280;54441;52.110;5.252;2022-07-05T04:53:52;102117.0;;;14.8;100.0
64215;BME280;54441;52.110;5.252;2022-07-05T04:55:39;102124.0;;;15.0;100.0
64215;BME280;54441;52.110;5.252;2022-07-05T04:57:25;102124.0;;;15.12;100.0
64215;BME280;54441;52.110;5.252;2022-07-05T04:59:12;102121.0;;;15.08;100.0
64215;BME280;54441;52.110;5.252;2022-07-05T05:01:00;102118.0;;;14.99;100.0
64215;BME280;54441;52.110;5.252;2022-07-05T05:02:47;102123.0;;;15.0;100.0
64215;BME280;54441;52.110;5.252;2022-07-05T05:06:21;102126.0;;;15.06;100.0
64215;BME280;54441;52.110;5.252;2022-07-05T05:08:07;102123.0;;;15.32;100.0
64215;BME280;54441;52.110;5.252;2022-07-05T05:09:53;102121.0;;;15.33;100.0
64215;BME280;54441;52.110;5.252;2022-07-05T05:11:40;102127.0;;;15.25;100.0
64215;BME280;54441;52.110;5.252;2022-07-05T05:13:27;102132.0;;;15.21;100.0
64215;BME280;54441;52.110;5.252;2022-07-05T05:15:14;102130.0;;;15.23;100.0
64215;BME280;54441;52.110;5.252;2022-07-05T05:18:47;102130.0;;;15.3;100.0
64215;BME280;54441;52.110;5.252;2022-07-05T05:22:19;102124.0;;;15.5;100.0
64215;BME280;54441;52.110;5.252;2022-07-05T05:24:06;102126.0;;;15.67;100.0
64215;BME280;54441;52.110;5.252;2022-07-05T05:25:53;102122.0;;;15.72;100.0
64215;BME280;54441;52.110;5.252;2022-07-05T05:29:28;102121.0;;;15.85;100.0
64215;BME280;54441;52.110;5.252;2022-07-05T05:31:15;102125.0;;;16.02;100.0
64215;BME280;54441;52.110;5.252;2022-07-05T05:33:01;102132.0;;;15.98;100.0
64215;BME280;54441;52.110;5.252;2022-07-05T05:34:47;102133.0;;;16.04;100.0
64215;BME280;54441;52.110;5.252;2022-07-05T05:36:34;102132.0;;;16.16;100.0
64215;BME280;54441;52.110;5.252;2022-07-05T05:38:21;102137.0;;;16.23;100.0
64215;BME280;54441;52.110;5.252;2022-07-05T05:41:56;102141.0;;;16.11;100.0
64215;BME280;54441;52.110;5.252;2022-07-05T05:43:43;102146.0;;;16.12;100.0
64215;BME280;54441;52.110;5.252;2022-07-05T05:45:29;102142.0;;;16.09;100.0
64215;BME280;54441;52.110;5.252;2022-07-05T05:47:16;102143.0;;;16.3;100.0
64215;BME280;54441;52.110;5.252;2022-07-05T05:49:03;102151.0;;;16.52;100.0
64215;BME280;54441;52.110;5.252;2022-07-05T05:50:49;102146.0;;;16.5;100.0
64215;BME280;54441;52.110;5.252;2022-07-05T05:54:23;102149.0;;;16.47;100.0
64215;BME280;54441;52.110;5.252;2022-07-05T05:56:10;102148.0;;;16.47;100.0
64215;BME280;54441;52.110;5.252;2022-07-05T05:58:10;102148.0;;;16.59;100.0
64215;BME280;54441;52.110;5.252;2022-07-05T05:59:57;102148.0;;;16.7;100.0
64215;BME280;54441;52.110;5.252;2022-07-05T06:01:43;102155.0;;;16.84;100.0
64215;BME280;54441;52.110;5.252;2022-07-05T06:03:29;102157.0;;;16.77;100.0
64215;BME280;54441;52.110;5.252;2022-07-05T06:07:03;102155.0;;;16.8;100.0
64215;BME280;54441;52.110;5.252;2022-07-05T06:08:49;102157.0;;;16.93;100.0
64215;BME280;54441;52.110;5.252;2022-07-05T06:10:36;102157.0;;;17.03;100.0
64215;BME280;54441;52.110;5.252;2022-07-05T06:12:23;102162.0;;;17.25;100.0
64215;BME280;54441;52.110;5.252;2022-07-05T06:14:09;102165.0;;;17.34;100.0
64215;BME280;54441;52.110;5.252;2022-07-05T06:15:55;102163.0;;;17.52;100.0
64215;BME280;54441;52.110;5.252;2022-07-05T06:19:28;102176.0;;;17.59;100.0
64215;BME280;54441;52.110;5.252;2022-07-05T06:23:03;102177.0;;;17.71;100.0
64215;BME280;54441;52.110;5.252;2022-07-05T06:24:50;102173.0;;;17.86;100.0
64215;BME280;54441;52.110;5.252;2022-07-05T06:26:36;102169.0;;;17.89;100.0
64215;BME280;54441;52.110;5.252;2022-07-05T06:30:12;102176.0;;;18.11;100.0
64215;BME280;54441;52.110;5.252;2022-07-05T06:32:01;102176.0;;;18.12;100.0
64215;BME280;54441;52.110;5.252;2022-07-05T06:33:47;102178.0;;;18.36;100.0
64215;BME280;54441;52.110;5.252;2022-07-05T06:35:33;102178.0;;;18.56;100.0
64215;BME280;54441;52.110;5.252;2022-07-05T06:37:20;102184.0;;;18.48;100.0
64215;BME280;54441;52.110;5.252;2022-07-05T06:39:06;102182.0;;;18.59;100.0
64215;BME280;54441;52.110;5.252;2022-07-05T06:42:39;102180.0;;;18.84;100.0
64215;BME280;54441;52.110;5.252;2022-07-05T06:44:27;102180.0;;;18.72;100.0
64215;BME280;54441;52.110;5.252;2022-07-05T06:46:13;102181.0;;;18.81;100.0
64215;BME280;54441;52.110;5.252;2022-07-05T06:48:01;102183.0;;;18.97;100.0
64215;BME280;54441;52.110;5.252;2022-07-05T06:49:48;102178.0;;;19.12;100.0
64215;BME280;54441;52.110;5.252;2022-07-05T06:51:34;102182.0;;;19.06;100.0
64215;BME280;54441;52.110;5.252;2022-07-05T06:55:07;102183.0;;;19.04;100.0
64215;BME280;54441;52.110;5.252;2022-07-05T06:56:55;102184.0;;;19.23;100.0
64215;BME280;54441;52.110;5.252;2022-07-05T06:58:41;102186.0;;;19.25;100.0
64215;BME280;54441;52.110;5.252;2022-07-05T07:00:27;102186.0;;;19.25;100.0
64215;BME280;54441;52.110;5.252;2022-07-05T07:02:14;102188.0;;;19.31;100.0
64215;BME280;54441;52.110;5.252;2022-07-05T07:04:02;102187.0;;;19.47;100.0
64215;BME280;54441;52.110;5.252;2022-07-05T07:10:36;102185.0;;;19.5;100.0
64215;BME280;54441;52.110;5.252;2022-07-05T07:12:23;102189.0;;;19.56;100.0
64215;BME280;54441;52.110;5.252;2022-07-05T07:15:58;102184.0;;;19.55;100.0
64215;BME280;54441;52.110;5.252;2022-07-05T07:17:44;102184.0;;;19.57;100.0
64215;BME280;54441;52.110;5.252;2022-07-05T07:19:30;102183.0;;;19.55;100.0
64215;BME280;54441;52.110;5.252;2022-07-05T07:21:16;102187.0;;;19.52;100.0
64215;BME280;54441;52.110;5.252;2022-07-05T07:23:02;102181.0;;;19.61;100.0
64215;BME280;54441;52.110;5.252;2022-07-05T07:27:03;102181.0;;;19.78;100.0
64215;BME280;54441;52.110;5.252;2022-07-05T07:28:51;102174.0;;;19.88;100.0
64215;BME280;54441;52.110;5.252;2022-07-05T07:30:38;102178.0;;;19.86;100.0
64215;BME280;54441;52.110;5.252;2022-07-05T07:32:25;102180.0;;;19.88;100.0
64215;BME280;54441;52.110;5.252;2022-07-05T07:34:13;102176.0;;;20.02;100.0
64215;BME280;54441;52.110;5.252;2022-07-05T07:35:58;102173.0;;;20.02;100.0
64215;BME280;54441;52.110;5.252;2022-07-05T07:37:46;102178.0;;;20.0;100.0
64215;BME280;54441;52.110;5.252;2022-07-05T07:39:33;102182.0;;;20.12;100.0
64215;BME280;54441;52.110;5.252;2022-07-05T07:43:05;102187.0;;;20.25;100.0
64215;BME280;54441;52.110;5.252;2022-07-05T07:44:51;102182.0;;;20.18;100.0
64215;BME280;54441;52.110;5.252;2022-07-05T07:46:39;102181.0;;;20.27;100.0
64215;BME280;54441;52.110;5.252;2022-07-05T07:48:28;102180.0;;;20.28;100.0
64215;BME280;54441;52.110;5.252;2022-07-05T07:50:15;102168.0;;;20.14;100.0
64215;BME280;54441;52.110;5.252;2022-07-05T07:53:47;102170.0;;;20.21;100.0
64215;BME280;54441;52.110;5.252;2022-07-05T07:55:34;102174.0;;;20.16;100.0
64215;BME280;54441;52.110;5.252;2022-07-05T07:57:20;102176.0;;;20.2;100.0
64215;BME280;54441;52.110;5.252;2022-07-05T07:59:08;102177.0;;;20.23;100.0
64215;BME280;54441;52.110;5.252;2022-07-05T08:00:55;102178.0;;;20.25;100.0
64215;BME280;54441;52.110;5.252;2022-07-05T08:02:41;102183.0;;;20.25;100.0
64215;BME280;54441;52.110;5.252;2022-07-05T08:06:14;102184.0;;;20.41;100.0
64215;BME280;54441;52.110;5.252;2022-07-05T08:08:01;102184.0;;;20.36;100.0
64215;BME280;54441;52.110;5.252;2022-07-05T08:09:49;102180.0;;;20.38;100.0
64215;BME280;54441;52.110;5.252;2022-07-05T08:11:36;102181.0;;;20.36;100.0
64215;BME280;54441;52.110;5.252;2022-07-05T08:13:23;102182.0;;;20.52;100.0
64215;BME280;54441;52.110;5.252;2022-07-05T08:15:10;102189.0;;;20.59;100.0
64215;BME280;54441;52.110;5.252;2022-07-05T08:21:48;102190.0;;;20.62;100.0
64215;BME280;54441;52.110;5.252;2022-07-05T08:23:35;102192.0;;;20.76;100.0
64215;BME280;54441;52.110;5.252;2022-07-05T08:27:08;102182.0;;;20.7;100.0
64215;BME280;54441;52.110;5.252;2022-07-05T08:28:55;102185.0;;;20.83;100.0
64215;BME280;54441;52.110;5.252;2022-07-05T08:30:42;102181.0;;;20.86;100.0
64215;BME280;54441;52.110;5.252;2022-07-05T08:32:28;102181.0;;;20.78;100.0
64215;BME280;54441;52.110;5.252;2022-07-05T08:34:18;102181.0;;;20.96;100.0
64215;BME280;54441;52.110;5.252;2022-07-05T08:36:06;102181.0;;;21.03;100.0
64215;BME280;54441;52.110;5.252;2022-07-05T08:39:39;102177.0;;;20.71;100.0
64215;BME280;54441;52.110;5.252;2022-07-05T08:41:25;102178.0;;;20.66;100.0
64215;BME280;54441;52.110;5.252;2022-07-05T08:43:13;102178.0;;;20.87;100.0
64215;BME280;54441;52.110;5.252;2022-07-05T08:45:01;102182.0;;;21.07;100.0
64215;BME280;54441;52.110;5.252;2022-07-05T08:46:51;102173.0;;;21.16;100.0
64215;BME280;54441;52.110;5.252;2022-07-05T08:48:43;102174.0;;;21.15;100.0
64215;BME280;54441;52.110;5.252;2022-07-05T08:52:22;102177.0;;;21.3;100.0
64215;BME280;54441;52.110;5.252;2022-07-05T08:54:09;102174.0;;;21.35;100.0
64215;BME280;54441;52.110;5.252;2022-07-05T08:55:58;102169.0;;;21.5;100.0
64215;BME280;54441;52.110;5.252;2022-07-05T08:57:45;102168.0;;;21.52;100.0
64215;BME280;54441;52.110;5.252;2022-07-05T08:59:32;102165.0;;;21.5;100.0
64215;BME280;54441;52.110;5.252;2022-07-05T09:01:19;102170.0;;;21.66;100.0
64215;BME280;54441;52.110;5.252;2022-07-05T09:04:55;102172.0;;;21.64;100.0
64215;BME280;54441;52.110;5.252;2022-07-05T09:06:47;102169.0;;;21.68;100.0
64215;BME280;54441;52.110;5.252;2022-07-05T09:08:35;102180.0;;;21.78;100.0
64215;BME280;54441;52.110;5.252;2022-07-05T09:10:25;102180.0;;;21.86;100.0
64215;BME280;54441;52.110;5.252;2022-07-05T09:12:13;102180.0;;;21.84;100.0
64215;BME280;54441;52.110;5.252;2022-07-05T09:14:02;102183.0;;;21.59;100.0
64215;BME280;54441;52.110;5.252;2022-07-05T09:15:51;102180.0;;;21.5;100.0
64215;BME280;54441;52.110;5.252;2022-07-05T09:19:30;102183.0;;;21.55;100.0
64215;BME280;54441;52.110;5.252;2022-07-05T09:21:18;102180.0;;;21.4;100.0
64215;BME280;54441;52.110;5.252;2022-07-05T09:23:06;102185.0;;;21.58;100.0
64215;BME280;54441;52.110;5.252;2022-07-05T09:24:52;102182.0;;;21.78;100.0
64215;BME280;54441;52.110;5.252;2022-07-05T09:26:40;102185.0;;;22.02;100.0
64215;BME280;54441;52.110;5.252;2022-07-05T09:28:28;102185.0;;;22.27;100.0
64215;BME280;54441;52.110;5.252;2022-07-05T09:32:23;102190.0;;;22.32;100.0
64215;BME280;54441;52.110;5.252;2022-07-05T09:34:11;102188.0;;;22.38;100.0
64215;BME280;54441;52.110;5.252;2022-07-05T09:35:58;102182.0;;;22.6;100.0
64215;BME280;54441;52.110;5.252;2022-07-05T09:37:44;102185.0;;;22.53;100.0
64215;BME280;54441;52.110;5.252;2022-07-05T09:39:39;102188.0;;;22.43;100.0
64215;BME280;54441;52.110;5.252;2022-07-05T09:41:25;102194.0;;;22.24;100.0
64215;BME280;54441;52.110;5.252;2022-07-05T09:43:13;102193.0;;;22.05;100.0
64215;BME280;54441;52.110;5.252;2022-07-05T09:46:47;102198.0;;;21.94;100.0
64215;BME280;54441;52.110;5.252;2022-07-05T09:48:34;102194.0;;;21.97;100.0
64215;BME280;54441;52.110;5.252;2022-07-05T09:50:37;102196.0;;;21.89;100.0
64215;BME280;54441;52.110;5.252;2022-07-05T09:52:28;102197.0;;;22.09;100.0
64215;BME280;54441;52.110;5.252;2022-07-05T09:54:14;102201.0;;;22.19;100.0
64215;BME280;54441;52.110;5.252;2022-07-05T09:56:02;102200.0;;;22.27;100.0
64215;BME280;54441;52.110;5.252;2022-07-05T09:57:50;102198.0;;;22.16;100.0
64215;BME280;54441;52.110;5.252;2022-07-05T10:01:24;102203.0;;;22.28;100.0
64215;BME280;54441;52.110;5.252;2022-07-05T10:03:11;102199.0;;;22.38;100.0
64215;BME280;54441;52.110;5.252;2022-07-05T10:05:08;102194.0;;;22.64;100.0
64215;BME280;54441;52.110;5.252;2022-07-05T10:06:56;102194.0;;;22.94;100.0
64215;BME280;54441;52.110;5.252;2022-07-05T10:08:42;102202.0;;;23.16;100.0
64215;BME280;54441;52.110;5.252;2022-07-05T10:10:31;102206.0;;;23.09;100.0
64215;BME280;54441;52.110;5.252;2022-07-05T10:12:19;102205.0;;;22.86;100.0
64215;BME280;54441;52.110;5.252;2022-07-05T10:16:00;102207.0;;;23.02;100.0
64215;BME280;54441;52.110;5.252;2022-07-05T10:17:51;102212.0;;;23.07;100.0
64215;BME280;54441;52.110;5.252;2022-07-05T10:19:50;102205.0;;;22.88;100.0
64215;BME280;54441;52.110;5.252;2022-07-05T10:21:39;102201.0;;;22.69;100.0
64215;BME280;54441;52.110;5.252;2022-07-05T10:23:26;102197.0;;;22.58;100.0
64215;BME280;54441;52.110;5.252;2022-07-05T10:25:14;102198.0;;;22.56;100.0
64215;BME280;54441;52.110;5.252;2022-07-05T10:27:06;102195.0;;;22.44;100.0
64215;BME280;54441;52.110;5.252;2022-07-05T10:30:40;102199.0;;;22.34;100.0
64215;BME280;54441;52.110;5.252;2022-07-05T10:32:28;102196.0;;;22.23;100.0
64215;BME280;54441;52.110;5.252;2022-07-05T10:34:15;102199.0;;;22.17;100.0
64215;BME280;54441;52.110;5.252;2022-07-05T10:36:03;102203.0;;;22.07;100.0
64215;BME280;54441;52.110;5.252;2022-07-05T10:37:51;102199.0;;;22.06;100.0
64215;BME280;54441;52.110;5.252;2022-07-05T10:39:40;102202.0;;;21.92;100.0
64215;BME280;54441;52.110;5.252;2022-07-05T10:43:15;102195.0;;;21.78;100.0
64215;BME280;54441;52.110;5.252;2022-07-05T10:45:03;102197.0;;;21.82;100.0
64215;BME280;54441;52.110;5.252;2022-07-05T10:47:12;102195.0;;;22.15;100.0
64215;BME280;54441;52.110;5.252;2022-07-05T10:50:57;102198.0;;;22.35;100.0
64215;BME280;54441;52.110;5.252;2022-07-05T10:53:01;102199.0;;;22.38;100.0
64215;BME280;54441;52.110;5.252;2022-07-05T10:55:18;102200.0;;;22.34;100.0
64215;BME280;54441;52.110;5.252;2022-07-05T10:57:20;102206.0;;;22.21;100.0
64215;BME280;54441;52.110;5.252;2022-07-05T10:59:11;102203.0;;;22.22;100.0
64215;BME280;54441;52.110;5.252;2022-07-05T11:01:34;102202.0;;;22.33;100.0
64215;BME280;54441;52.110;5.252;2022-07-05T11:03:38;102212.0;;;22.53;100.0
64215;BME280;54441;52.110;5.252;2022-07-05T11:05:26;102205.0;;;22.62;100.0
64215;BME280;54441;52.110;5.252;2022-07-05T11:07:13;102209.0;;;22.58;100.0
64215;BME280;54441;52.110;5.252;2022-07-05T11:09:16;102214.0;;;22.52;100.0
64215;BME280;54441;52.110;5.252;2022-07-05T11:11:11;102213.0;;;22.42;100.0
64215;BME280;54441;52.110;5.252;2022-07-05T11:12:58;102202.0;;;22.25;100.0
64215;BME280;54441;52.110;5.252;2022-07-05T11:16:34;102216.0;;;22.22;100.0
64215;BME280;54441;52.110;5.252;2022-07-05T11:18:23;102218.0;;;22.24;100.0
64215;BME280;54441;52.110;5.252;2022-07-05T11:20:13;102212.0;;;22.24;100.0
64215;BME280;54441;52.110;5.252;2022-07-05T11:22:02;102219.0;;;22.39;100.0
64215;BME280;54441;52.110;5.252;2022-07-05T11:23:49;102217.0;;;22.6;100.0
64215;BME280;54441;52.110;5.252;2022-07-05T11:25:38;102215.0;;;22.71;100.0
64215;BME280;54441;52.110;5.252;2022-07-05T11:29:40;102212.0;;;22.76;100.0